createdAt,value
2023-05-01T00:00:52.571Z,2.70
2023-05-01T00:05:46.338Z,2.83
2023-05-01T00:08:12.847Z,2.05
2023-05-01T00:10:39.812Z,3.42
2023-05-01T00:13:06.233Z,2.92
2023-05-01T00:15:33.710Z,2.70
2023-05-01T00:18:00.076Z,3.00
2023-05-01T00:20:28.073Z,3.55
2023-05-01T00:22:55.322Z,2.85
2023-05-01T00:25:21.710Z,3.60
2023-05-01T00:27:48.619Z,2.95
2023-05-01T00:30:15.030Z,3.13
2023-05-01T00:32:41.496Z,3.05
2023-05-01T00:35:08.184Z,2.10
2023-05-01T00:37:34.545Z,3.30
2023-05-01T00:40:00.953Z,3.08
2023-05-01T00:42:27.312Z,3.20
2023-05-01T00:44:53.594Z,2.85
2023-05-01T00:47:19.930Z,2.65
2023-05-01T00:49:47.307Z,3.13
2023-05-01T00:52:13.717Z,2.95
2023-05-01T00:54:40.654Z,3.13
2023-05-01T00:57:09.439Z,3.00
2023-05-01T00:59:35.772Z,3.47
2023-05-01T01:02:02.206Z,3.15
2023-05-01T01:04:31.417Z,2.50
2023-05-01T01:07:16.017Z,2.75
2023-05-01T01:09:58.881Z,2.95
2023-05-01T01:12:34.499Z,2.80
2023-05-01T01:15:18.701Z,3.00
2023-05-01T01:18:18.048Z,3.10
2023-05-01T01:20:55.830Z,3.40
2023-05-01T01:23:43.055Z,3.47
2023-05-01T01:26:13.794Z,3.20
2023-05-01T01:29:03.288Z,2.85
2023-05-01T01:31:39.226Z,3.20
2023-05-01T01:34:14.664Z,3.10
2023-05-01T01:36:48.918Z,2.90
2023-05-01T01:39:28.866Z,3.17
2023-05-01T01:41:58.290Z,3.30
2023-05-01T01:44:34.146Z,3.60
2023-05-01T01:47:04.801Z,3.15
2023-05-01T01:49:31.548Z,3.63
2023-05-01T01:52:01.766Z,3.55
2023-05-01T01:54:40.493Z,3.28
2023-05-01T01:57:08.344Z,2.75
2023-05-01T01:59:35.247Z,3.65
2023-05-01T02:02:03.738Z,3.90
2023-05-01T02:04:31.689Z,3.08
2023-05-01T02:06:59.631Z,3.38
2023-05-01T02:09:29.580Z,3.08
2023-05-01T02:11:56.628Z,3.30
2023-05-01T02:14:26.347Z,3.42
2023-05-01T02:16:53.747Z,3.30
2023-05-01T02:19:21.184Z,3.58
2023-05-01T02:21:49.824Z,2.70
2023-05-01T02:24:18.197Z,4.63
2023-05-01T02:26:49.767Z,3.65
2023-05-01T02:29:16.118Z,3.40
2023-05-01T02:31:42.470Z,3.42
2023-05-01T02:34:08.965Z,3.50
2023-05-01T02:36:35.240Z,3.45
2023-05-01T02:39:01.861Z,3.42
2023-05-01T02:44:00.620Z,3.58
2023-05-01T02:46:28.029Z,3.00
2023-05-01T02:48:56.453Z,3.40
2023-05-01T02:51:24.139Z,3.97
2023-05-01T02:53:50.666Z,3.58
2023-05-01T02:56:17.081Z,3.65
2023-05-01T02:58:44.325Z,3.97
2023-05-01T03:01:11.188Z,3.83
2023-05-01T03:03:37.828Z,3.30
2023-05-01T03:06:04.890Z,3.95
2023-05-01T03:08:31.216Z,3.63
2023-05-01T03:10:57.534Z,3.58
2023-05-01T03:13:23.816Z,3.60
2023-05-01T03:15:50.098Z,3.65
2023-05-01T03:18:16.372Z,3.40
2023-05-01T03:20:52.059Z,4.03
2023-05-01T03:23:18.405Z,3.83
2023-05-01T03:25:44.668Z,3.88
2023-05-01T03:28:10.995Z,3.55
2023-05-01T03:30:37.281Z,3.72
2023-05-01T03:33:03.794Z,3.70
2023-05-01T03:35:30.158Z,3.85
2023-05-01T03:37:56.522Z,3.95
2023-05-01T03:40:23.426Z,3.55
2023-05-01T03:42:49.709Z,3.65
2023-05-01T03:45:16.052Z,4.13
2023-05-01T03:47:42.369Z,3.42
2023-05-01T03:50:09.131Z,4.00
2023-05-01T03:52:35.387Z,3.75
2023-05-01T03:55:02.031Z,4.05
2023-05-01T03:59:55.219Z,3.90
2023-05-01T04:02:21.954Z,3.88
2023-05-01T04:04:48.326Z,3.85
2023-05-01T04:09:43.676Z,3.70
2023-05-01T04:12:09.965Z,3.92
2023-05-01T04:14:36.286Z,4.10
2023-05-01T04:17:02.685Z,3.70
2023-05-01T04:19:29.024Z,3.92
2023-05-01T04:21:55.324Z,4.25
2023-05-01T04:24:21.608Z,3.58
2023-05-01T04:26:47.885Z,4.00
2023-05-01T04:29:14.203Z,4.25
2023-05-01T04:31:41.690Z,3.95
2023-05-01T04:34:08.141Z,3.92
2023-05-01T04:36:34.435Z,3.90
2023-05-01T04:39:00.715Z,4.10
2023-05-01T04:41:27.105Z,4.70
2023-05-01T04:43:53.473Z,4.10
2023-05-01T04:46:19.802Z,4.53
2023-05-01T04:48:46.116Z,3.97
2023-05-01T04:51:12.540Z,4.22
2023-05-01T04:53:38.808Z,4.13
2023-05-01T04:56:05.641Z,4.25
2023-05-01T04:58:32.040Z,4.70
2023-05-01T05:00:58.489Z,3.95
2023-05-01T05:03:24.870Z,3.92
2023-05-01T05:05:51.262Z,4.45
2023-05-01T05:08:17.601Z,3.72
2023-05-01T05:10:43.921Z,4.28
2023-05-01T05:13:10.739Z,3.90
2023-05-01T05:15:37.073Z,4.25
2023-05-01T05:18:03.855Z,4.22
2023-05-01T05:20:30.227Z,4.40
2023-05-01T05:22:56.670Z,4.32
2023-05-01T05:25:24.227Z,4.47
2023-05-01T05:27:50.770Z,4.70
2023-05-01T05:30:17.107Z,4.80
2023-05-01T05:32:44.335Z,4.53
2023-05-01T05:35:10.742Z,4.18
2023-05-01T05:37:37.053Z,4.97
2023-05-01T05:40:03.990Z,4.50
2023-05-01T05:42:31.119Z,4.25
2023-05-01T05:44:57.396Z,4.70
2023-05-01T05:47:23.720Z,4.20
2023-05-01T05:49:50.033Z,4.90
2023-05-01T05:52:16.787Z,4.45
2023-05-01T05:54:43.394Z,4.22
2023-05-01T05:57:09.718Z,4.65
2023-05-01T05:59:36.394Z,4.65
2023-05-01T06:02:02.863Z,4.25
2023-05-01T06:04:29.376Z,5.47
2023-05-01T06:06:56.104Z,4.63
2023-05-01T06:09:22.469Z,4.82
2023-05-01T06:11:48.846Z,5.15
2023-05-01T06:14:16.624Z,4.35
2023-05-01T06:16:42.964Z,4.90
2023-05-01T06:19:12.071Z,4.65
2023-05-01T06:21:38.423Z,4.38
2023-05-01T06:24:04.947Z,4.45
2023-05-01T06:26:31.271Z,4.65
2023-05-01T06:28:57.544Z,5.20
2023-05-01T06:31:23.826Z,5.28
2023-05-01T06:33:50.146Z,5.50
2023-05-01T06:36:16.452Z,4.95
2023-05-01T06:38:48.401Z,5.20
2023-05-01T06:41:16.146Z,4.93
2023-05-01T06:43:42.410Z,4.65
2023-05-01T06:46:08.899Z,4.80
2023-05-01T06:51:01.545Z,4.95
2023-05-01T06:53:40.503Z,5.20
2023-05-01T06:56:07.600Z,5.32
2023-05-01T06:58:34.065Z,4.57
2023-05-01T07:01:00.502Z,5.07
2023-05-01T07:03:30.298Z,4.93
2023-05-01T07:05:57.017Z,4.50
2023-05-01T07:10:50.689Z,4.65
2023-05-01T07:13:17.185Z,5.07
2023-05-01T07:15:43.533Z,4.20
2023-05-01T07:18:10.106Z,4.63
2023-05-01T07:20:36.410Z,4.78
2023-05-01T07:23:04.730Z,4.93
2023-05-01T07:25:32.449Z,5.05
2023-05-01T07:28:00.750Z,5.18
2023-05-01T07:30:27.567Z,4.88
2023-05-01T07:32:53.892Z,5.13
2023-05-01T07:35:20.216Z,5.47
2023-05-01T07:37:46.580Z,5.40
2023-05-01T07:40:12.875Z,5.18
2023-05-01T07:42:39.258Z,5.63
2023-05-01T07:45:06.272Z,5.50
2023-05-01T07:47:32.871Z,5.75
2023-05-01T07:49:59.342Z,5.15
2023-05-01T07:52:26.135Z,5.00
2023-05-01T07:54:52.865Z,5.38
2023-05-01T07:57:19.257Z,5.28
2023-05-01T07:59:45.685Z,5.30
2023-05-01T08:02:13.653Z,5.40
2023-05-01T08:04:41.655Z,5.13
2023-05-01T08:07:08.266Z,4.90
2023-05-01T08:09:34.572Z,5.15
2023-05-01T08:12:04.671Z,4.95
2023-05-01T08:14:31.173Z,5.40
2023-05-01T08:17:00.164Z,4.88
2023-05-01T08:19:27.834Z,5.15
2023-05-01T08:21:54.349Z,4.85
2023-05-01T08:26:47.131Z,4.68
2023-05-01T08:31:43.634Z,4.63
2023-05-01T08:34:10.011Z,4.40
2023-05-01T08:36:36.444Z,5.00
2023-05-01T08:39:03.691Z,5.15
2023-05-01T08:41:31.192Z,4.95
2023-05-01T08:44:04.194Z,5.95
2023-05-01T08:46:49.543Z,5.32
2023-05-01T08:51:50.042Z,4.65
2023-05-01T08:54:17.626Z,4.82
2023-05-01T08:56:47.822Z,4.72
2023-05-01T08:59:15.052Z,4.88
2023-05-01T09:01:43.116Z,4.88
2023-05-01T09:04:11.181Z,4.60
2023-05-01T09:06:37.972Z,5.18
2023-05-01T09:09:04.504Z,5.20
2023-05-01T09:13:57.476Z,4.57
2023-05-01T09:16:23.908Z,4.68
2023-05-01T09:21:16.685Z,5.07
2023-05-01T09:26:11.907Z,4.65
2023-05-01T09:28:58.969Z,4.68
2023-05-01T09:31:35.054Z,5.05
2023-05-01T09:34:06.160Z,5.90
2023-05-01T09:36:37.403Z,5.00
2023-05-01T09:39:07.017Z,4.78
2023-05-01T09:41:35.637Z,4.75
2023-05-01T09:44:01.997Z,4.70
2023-05-01T09:46:29.852Z,5.03
2023-05-01T09:48:58.744Z,5.28
2023-05-01T09:51:29.074Z,5.00
2023-05-01T09:54:05.221Z,4.63
2023-05-01T09:56:33.782Z,4.57
2023-05-01T09:59:15.798Z,4.80
2023-05-01T10:01:48.514Z,5.05
2023-05-01T10:04:14.998Z,5.05
2023-05-01T10:09:16.509Z,4.57
2023-05-01T10:11:57.564Z,5.35
2023-05-01T10:14:25.574Z,5.45
2023-05-01T10:16:53.080Z,5.43
2023-05-01T10:19:20.317Z,6.03
2023-05-01T10:21:47.028Z,5.13
2023-05-01T10:24:15.103Z,5.20
2023-05-01T10:26:42.916Z,5.68
2023-05-01T10:29:09.305Z,4.80
2023-05-01T10:34:02.587Z,5.03
2023-05-01T10:36:37.452Z,3.88
2023-05-01T10:39:05.502Z,4.85
2023-05-01T10:42:05.868Z,4.85
2023-05-01T10:44:37.560Z,5.28
2023-05-01T10:47:37.723Z,4.63
2023-05-01T10:50:12.214Z,4.90
2023-05-01T10:53:17.599Z,5.07
2023-05-01T10:55:49.106Z,4.88
2023-05-01T10:58:55.949Z,5.82
2023-05-01T11:01:39.739Z,4.65
2023-05-01T11:04:27.477Z,4.85
2023-05-01T11:07:07.411Z,4.82
2023-05-01T11:09:57.425Z,4.90
2023-05-01T11:12:45.850Z,4.97
2023-05-01T11:15:13.562Z,5.38
2023-05-01T11:17:40.122Z,4.75
2023-05-01T11:20:10.429Z,4.78
2023-05-01T11:22:41.085Z,4.45
2023-05-01T11:25:22.097Z,5.07
2023-05-01T11:28:03.714Z,5.00
2023-05-01T11:30:42.231Z,4.70
2023-05-01T11:33:10.479Z,5.03
2023-05-01T11:35:37.501Z,5.28
2023-05-01T11:38:06.372Z,4.68
2023-05-01T11:40:34.770Z,4.90
2023-05-01T11:43:08.922Z,4.88
2023-05-01T11:45:36.914Z,4.93
2023-05-01T11:48:04.410Z,4.97
2023-05-01T11:50:36.583Z,4.80
2023-05-01T11:53:15.530Z,5.95
2023-05-01T11:55:42.003Z,4.88
2023-05-01T11:58:11.638Z,4.47
2023-05-01T12:00:41.602Z,4.93
2023-05-01T12:03:10.291Z,5.25
2023-05-01T12:05:49.564Z,4.07
2023-05-01T12:08:20.578Z,4.70
2023-05-01T12:10:49.231Z,4.88
2023-05-01T12:13:16.811Z,4.85
2023-05-01T12:15:46.845Z,4.97
2023-05-01T12:18:15.184Z,4.43
2023-05-01T12:20:44.469Z,4.75
2023-05-01T12:23:12.668Z,4.95
2023-05-01T12:25:43.293Z,4.85
2023-05-01T12:28:11.243Z,4.70
2023-05-01T12:30:38.364Z,5.03
2023-05-01T12:33:10.471Z,4.53
2023-05-01T12:35:37.688Z,4.10
2023-05-01T12:38:20.618Z,4.47
2023-05-01T12:40:54.476Z,4.32
2023-05-01T12:43:22.362Z,4.50
2023-05-01T12:45:53.455Z,4.20
2023-05-01T12:48:21.864Z,4.57
2023-05-01T12:50:56.533Z,4.40
2023-05-01T12:53:30.494Z,4.47
2023-05-01T12:55:58.690Z,5.13
2023-05-01T12:58:38.497Z,4.72
2023-05-01T13:01:09.010Z,5.25
2023-05-01T13:03:38.513Z,4.28
2023-05-01T13:06:06.716Z,4.60
2023-05-01T13:08:39.804Z,5.78
2023-05-01T13:11:17.378Z,5.30
2023-05-01T13:13:48.839Z,4.80
2023-05-01T13:16:20.282Z,6.72
2023-05-01T13:18:51.534Z,5.32
2023-05-01T13:21:21.396Z,6.00
2023-05-01T13:23:55.917Z,5.18
2023-05-01T13:26:33.037Z,5.43
2023-05-01T13:29:01.925Z,6.00
2023-05-01T13:31:29.156Z,5.72
2023-05-01T13:34:00.198Z,5.55
2023-05-01T13:36:33.762Z,5.10
2023-05-01T13:39:00.265Z,4.82
2023-05-01T13:41:27.406Z,3.75
2023-05-01T13:43:58.836Z,9.30
2023-05-01T13:46:27.542Z,4.82
2023-05-01T13:48:56.210Z,4.72
2023-05-01T13:51:24.411Z,4.90
2023-05-01T13:53:53.322Z,4.65
2023-05-01T13:56:22.994Z,5.78
2023-05-01T13:58:52.243Z,5.43
2023-05-01T14:01:21.021Z,5.13
2023-05-01T14:03:49.434Z,4.70
2023-05-01T14:06:18.422Z,4.65
2023-05-01T14:08:46.782Z,4.20
2023-05-01T14:11:14.304Z,5.05
2023-05-01T14:13:41.911Z,4.03
2023-05-01T14:16:12.973Z,3.83
2023-05-01T14:18:46.510Z,4.38
2023-05-01T14:21:22.655Z,3.92
2023-05-01T14:23:48.990Z,3.67
2023-05-01T14:26:45.501Z,4.38
2023-05-01T14:29:26.792Z,3.88
2023-05-01T14:31:54.594Z,4.07
2023-05-01T14:34:22.479Z,4.20
2023-05-01T14:36:48.778Z,3.60
2023-05-01T14:41:42.773Z,3.42
2023-05-01T14:44:15.534Z,3.55
2023-05-01T14:46:47.002Z,3.47
2023-05-01T14:49:19.317Z,3.65
2023-05-01T14:51:45.674Z,3.95
2023-05-01T14:54:12.913Z,3.50
2023-05-01T14:56:39.616Z,3.50
2023-05-01T14:59:06.020Z,5.10
2023-05-01T15:01:32.847Z,3.72
2023-05-01T15:04:01.952Z,3.08
2023-05-01T15:06:30.118Z,3.90
2023-05-01T15:08:56.541Z,3.95
2023-05-01T15:11:23.036Z,3.92
2023-05-01T15:13:50.365Z,4.30
2023-05-01T15:16:17.150Z,3.72
2023-05-01T15:18:43.540Z,3.83
2023-05-01T15:23:37.127Z,3.67
2023-05-01T15:26:03.838Z,3.42
2023-05-01T15:28:30.370Z,3.65
2023-05-01T15:30:56.834Z,4.18
2023-05-01T15:33:23.300Z,3.95
2023-05-01T15:35:52.559Z,3.75
2023-05-01T15:38:20.496Z,3.72
2023-05-01T15:40:46.814Z,3.70
2023-05-01T15:45:43.255Z,3.80
2023-05-01T15:48:11.117Z,3.60
2023-05-01T15:50:37.594Z,3.70
2023-05-01T15:55:30.268Z,3.97
2023-05-01T15:57:56.936Z,4.10
2023-05-01T16:00:23.349Z,3.78
2023-05-01T16:02:50.588Z,4.95
2023-05-01T16:05:21.163Z,3.80
2023-05-01T16:07:53.969Z,3.90
2023-05-01T16:10:20.549Z,3.20
2023-05-01T16:12:47.161Z,3.85
2023-05-01T16:15:14.564Z,4.28
2023-05-01T16:17:45.591Z,4.05
2023-05-01T16:20:14.073Z,3.63
2023-05-01T16:22:41.727Z,3.53
2023-05-01T16:25:09.543Z,3.53
2023-05-01T16:27:41.041Z,3.72
2023-05-01T16:30:08.976Z,3.70
2023-05-01T16:32:35.727Z,3.65
2023-05-01T16:35:03.564Z,4.07
2023-05-01T16:37:30.003Z,3.38
2023-05-01T16:39:59.673Z,3.80
2023-05-01T16:42:26.180Z,4.28
2023-05-01T16:47:18.994Z,3.80
2023-05-01T16:49:46.586Z,4.13
2023-05-01T16:52:15.442Z,3.60
2023-05-01T16:54:41.816Z,3.78
2023-05-01T16:59:34.558Z,4.03
2023-05-01T17:02:00.912Z,3.85
2023-05-01T17:04:27.664Z,3.47
2023-05-01T17:06:56.022Z,3.85
2023-05-01T17:09:22.580Z,5.35
2023-05-01T17:14:15.240Z,4.25
2023-05-01T17:19:09.684Z,4.50
2023-05-01T17:21:36.047Z,4.13
2023-05-01T17:26:28.894Z,3.97
2023-05-01T17:28:55.244Z,3.92
2023-05-01T17:33:49.310Z,4.47
2023-05-01T17:36:15.691Z,4.05
2023-05-01T17:41:08.212Z,4.03
2023-05-01T17:43:34.510Z,4.40
2023-05-01T17:46:00.833Z,4.50
2023-05-01T17:48:28.500Z,3.95
2023-05-01T17:50:55.697Z,4.00
2023-05-01T17:53:23.183Z,4.15
2023-05-01T17:55:49.512Z,4.28
2023-05-01T18:00:42.462Z,4.72
2023-05-01T18:05:52.994Z,3.70
2023-05-01T18:08:19.274Z,4.78
2023-05-01T18:10:45.656Z,4.80
2023-05-01T18:15:39.261Z,4.60
2023-05-01T18:20:31.940Z,4.47
2023-05-01T18:22:58.245Z,4.45
2023-05-01T18:25:24.669Z,4.78
2023-05-01T18:30:17.324Z,5.38
2023-05-01T18:32:47.451Z,5.22
2023-05-01T18:35:15.850Z,6.00
2023-05-01T18:37:42.768Z,6.30
2023-05-01T18:40:09.901Z,5.10
2023-05-01T18:42:36.215Z,5.32
2023-05-01T18:47:32.267Z,5.95
2023-05-01T18:49:59.132Z,5.65
2023-05-01T18:52:25.877Z,4.25
2023-05-01T18:54:52.211Z,5.15
2023-05-01T18:57:18.506Z,5.60
2023-05-01T18:59:45.032Z,4.40
2023-05-01T19:02:11.546Z,4.60
2023-05-01T19:04:55.819Z,5.75
2023-05-01T19:07:26.617Z,4.82
2023-05-01T19:09:53.050Z,5.63
2023-05-01T19:12:19.382Z,6.50
2023-05-01T19:14:45.718Z,5.93
2023-05-01T19:17:12.016Z,5.78
2023-05-01T19:19:38.280Z,5.53
2023-05-01T19:22:04.640Z,5.78
2023-05-01T19:24:30.963Z,5.90
2023-05-01T19:26:57.276Z,6.25
2023-05-01T19:29:23.662Z,6.53
2023-05-01T19:34:20.184Z,5.75
2023-05-01T19:36:46.470Z,5.63
2023-05-01T19:39:14.823Z,6.40
2023-05-01T19:41:41.137Z,5.28
2023-05-01T19:44:11.045Z,5.75
2023-05-01T19:46:37.333Z,5.43
2023-05-01T19:49:03.640Z,4.65
2023-05-01T19:51:30.004Z,4.80
2023-05-01T19:53:59.563Z,4.55
2023-05-01T19:56:25.891Z,4.60
2023-05-01T19:58:56.361Z,5.28
2023-05-01T20:01:22.746Z,5.45
2023-05-01T20:06:18.153Z,4.57
2023-05-01T20:08:44.629Z,5.22
2023-05-01T20:13:37.719Z,4.82
2023-05-01T20:16:09.365Z,3.80
2023-05-01T20:18:35.834Z,3.95
2023-05-01T20:21:04.209Z,3.75
2023-05-01T20:23:30.564Z,3.83
2023-05-01T20:25:56.874Z,4.40
2023-05-01T20:28:23.436Z,4.20
2023-05-01T20:30:50.013Z,3.72
2023-05-01T20:35:45.137Z,3.47
2023-05-01T20:38:11.559Z,4.20
2023-05-01T20:40:40.023Z,4.00
2023-05-01T20:43:07.094Z,3.45
2023-05-01T20:45:33.551Z,4.35
2023-05-01T20:48:00.053Z,3.58
2023-05-01T20:50:27.306Z,3.47
2023-05-01T20:52:55.128Z,3.63
2023-05-01T20:55:23.175Z,3.53
2023-05-01T20:57:49.600Z,3.28
2023-05-01T21:00:16.223Z,3.92
2023-05-01T21:02:42.942Z,3.33
2023-05-01T21:05:11.273Z,3.10
2023-05-01T21:07:38.292Z,3.30
2023-05-01T21:10:10.190Z,3.22
2023-05-01T21:12:39.794Z,3.38
2023-05-01T21:15:06.606Z,3.28
2023-05-01T21:17:35.616Z,3.35
2023-05-01T21:20:05.626Z,3.22
2023-05-01T21:22:32.082Z,3.55
2023-05-01T21:24:59.831Z,3.25
2023-05-01T21:27:27.534Z,3.30
2023-05-01T21:29:59.081Z,3.58
2023-05-01T21:32:32.344Z,3.35
2023-05-01T21:35:03.599Z,3.72
2023-05-01T21:37:29.954Z,3.13
2023-05-01T21:40:00.831Z,3.75
2023-05-01T21:42:34.216Z,3.72
2023-05-01T21:45:08.338Z,3.70
2023-05-01T21:47:40.138Z,3.97
2023-05-01T21:50:07.585Z,3.92
2023-05-01T21:52:37.075Z,3.70
2023-05-01T21:55:09.200Z,4.10
2023-05-01T21:57:36.835Z,3.75
2023-05-01T22:00:05.366Z,3.75
2023-05-01T22:02:40.266Z,3.25
2023-05-01T22:05:07.640Z,3.70
2023-05-01T22:07:37.191Z,4.22
2023-05-01T22:10:03.761Z,4.45
2023-05-01T22:12:30.077Z,4.00
2023-05-01T22:14:56.403Z,3.55
2023-05-01T22:17:26.144Z,3.10
2023-05-01T22:19:53.084Z,3.78
2023-05-01T22:22:19.806Z,3.40
2023-05-01T22:24:46.203Z,3.78
2023-05-01T22:27:12.476Z,3.70
2023-05-01T22:29:38.795Z,4.07
2023-05-01T22:32:05.457Z,3.47
2023-05-01T22:34:31.777Z,3.88
2023-05-01T22:36:58.213Z,3.35
2023-05-01T22:39:24.732Z,3.72
2023-05-01T22:44:17.312Z,4.30
2023-05-01T22:46:44.397Z,4.25
2023-05-01T22:49:10.855Z,3.83
2023-05-01T22:51:37.386Z,4.10
2023-05-01T22:56:30.300Z,3.72
2023-05-01T22:58:56.591Z,3.80
2023-05-01T23:01:23.129Z,3.97
2023-05-01T23:06:18.694Z,3.72
2023-05-01T23:08:45.030Z,3.72
2023-05-01T23:11:11.995Z,4.70
2023-05-01T23:13:46.081Z,4.57
2023-05-01T23:16:15.292Z,3.67
2023-05-01T23:18:42.396Z,4.75
2023-05-01T23:21:10.522Z,9.23
2023-05-01T23:23:42.824Z,5.75
2023-05-01T23:26:10.089Z,3.88
2023-05-01T23:28:43.748Z,4.45
2023-05-01T23:31:18.688Z,4.57
2023-05-01T23:33:45.077Z,4.07
2023-05-01T23:36:12.810Z,4.47
2023-05-01T23:38:40.298Z,4.72
2023-05-01T23:41:07.823Z,3.53
2023-05-01T23:43:34.911Z,4.00
2023-05-01T23:46:03.448Z,4.30
2023-05-01T23:48:30.065Z,4.85
2023-05-01T23:53:22.832Z,4.32
2023-05-01T23:55:49.172Z,4.40
2023-05-01T23:58:15.505Z,4.97
